Nearby METAR Reports

 

NZAA - Auckland Intl Ar, New Zealand
Distance from station: SW 18km
Updated: 23/08/2019 01:30
Light rain, Overcast
Light rain, Overcast
 Wind from N
Wind: N 13 km/h
Temperature: 11°C
Dew Point: 10°C
Humidity: 94%
Barometer: 997 hPa
Summary: Light rain
Clouds: Overcast
Visibility: 10 km
Cloud details: Partly cloudy 488 m
Mostly cloudy 823 m
Overcast 2134 m
2019/08/22 13:30 NZAA 221330Z AUTO 01007KT 9999 -RA SCT016/// BKN027/// OVC070/// 11/10 Q0997 TEMPO 4000 +RA BKN012
NZWN - Wellington Intl, New Zealand
Distance from station: S 493km
Updated: 23/08/2019 01:30
Clear
Clear
 Wind from NNW
Wind: NNW 28 km/h, Gust: 48 km/h
Temperature: 11°C
Dew Point: 6°C
Humidity: 72%
Barometer: 991 hPa
Clouds: Clear
Visibility: 10 km
2019/08/22 13:30 NZWN 221330Z AUTO 34015G26KT 310V010 9999 NCD 11/06 Q0991 TEMPO 6000 SHRA
 
NZCH - Christchurch Int, New Zealand
Distance from station: SSW 759km
Updated: 23/08/2019 01:30
Clear
Clear
 Wind from ENE
Wind: ENE 7 km/h
Temperature: 4°C
Wind Chill: 2°C
Dew Point: 2°C
Humidity: 87%
Barometer: 986 hPa
Clouds: Clear
Visibility: 10 km
2019/08/22 13:30 NZCH 221330Z AUTO 06004KT 020V080 9999 NCD 04/02 Q0986 NOSIG
YSNF - Norfolk Island A, Australia
Distance from station: NW 1091km
Updated: 23/08/2019 01:33
Mostly cloudy
Mostly cloudy
 Wind from WNW
Wind: WNW 37 km/h, Gust: 56 km/h
Temperature: 18°C
Dew Point: 14°C
Humidity: 78%
Barometer: 1005 hPa
Clouds: Mostly cloudy
Visibility: 9 km
Cloud details: Partly cloudy 549 m
Mostly cloudy 701 m
Mostly cloudy 1036 m
2019/08/22 13:33 YSNF 221333Z AUTO 30020G30KT 9000 // SCT018 BKN023 BKN034 18/14 Q1005